الصفحة الرئيسية
METAR-TAF:

METAR-TAF

مطار :

مطار وجدة أنجاد

وجدة, المغرب

دائرة عرض: 34-47N, خط طول: 001-56W, ارتفاع: 468 متر

مراقبة الطقس الحالي

تاريخ ووقت الإصدار 1ساعة و 0 دقيقة قبل الساعة 12:00UTC
ريح 15 عقدة من الشمال الشرقي
درجة الحرارة 29°درجة مئوية
الرطوبة 35%
ضغط 1024 hPa
الرؤية 10 كم أو أكثر
غيوم قليلة على ارتفاع 3000 قدم

METAR: GMFO 261200Z 04015KT 9999 FEW030 29/12 Q1024 NOSIG

زمن: 14:00 (13:00 UTC)

توقعات

تاريخ ووقت الإصدار 2ساعات و 0 دقيقة قبل الساعة 11:00UTC
التوقعات صالحة من26 الساعة 12 UTC إلى 27 الساعة 18 UTC
ريح 16 عقدة من الشمال
الرؤية 10 كم أو أكثر
غيوم متفرقة على ارتفاع 3000 قدم
نظرية الاحتمالات 30% :
مؤقت
من 26 الساعة 22 UTC إلى 27 الساعة 06 UTC
غيوم قليلة على ارتفاع 3300 قدم, مزنة ركامية.
عاصفة رعدية, مطر
أصبح
من 27 الساعة 08 UTC إلى 27 الساعة 10 UTC
ريح 6 عقدة من الشرق/الشمال الشرقي
الرؤية 10 كم أو أكثر
غيوم متفرقة على ارتفاع 2600 قدم
غيوم متفرقة على ارتفاع 10000 قدم

TAF: GMFO 261100Z 2612/2718 36016KT 9999 SCT030 PROB30 TEMPO 2622/2706 TSRA FEW033CB BECMG 2708/2710 06006KT 9999 SCT026 SCT100

أرصاد الطقس والتوقعات من أكثر من 4000 مطار (تقارير الطقس للمطار METAR والتنبؤ بالطقس بالمطارTAF).

المحطات المتاحة هي النقط الصفراء والحمراء على الخريطة.

حرك المؤشر فوق النقطة لمعرفة اسم المحطة.

ثم انقر لمعرفة أرصاد وتوقعات الطقس.

لتغيير الخارطة: اضغط على الأزرار الخضراء مع رمز الصليب الأسود للتكبير. على الزر الأخضر مع شرطة للتصغير، أو على الأسهم الخضراء للخرائط المجاورة.


METAR-TAF: